createdAt,value
2024-03-27T00:02:00.836Z,82.57
2024-03-27T00:07:03.741Z,82.52
2024-03-27T00:12:07.194Z,82.83
2024-03-27T00:17:10.112Z,83.43
2024-03-27T00:22:12.960Z,83.37
2024-03-27T00:27:15.768Z,83.71
2024-03-27T00:32:18.885Z,83.59
2024-03-27T00:37:21.905Z,84.11
2024-03-27T00:42:25.403Z,84.60
2024-03-27T00:47:28.306Z,84.76
2024-03-27T00:52:31.210Z,85.10
2024-03-27T00:57:34.115Z,85.44
2024-03-27T01:02:37.018Z,85.73
2024-03-27T01:07:40.330Z,86.03
2024-03-27T01:12:43.240Z,86.17
2024-03-27T01:17:47.570Z,86.42
2024-03-27T01:22:50.579Z,86.77
2024-03-27T01:27:53.587Z,86.92
2024-03-27T01:32:58.342Z,87.00
2024-03-27T01:38:01.233Z,87.34
2024-03-27T01:43:04.455Z,87.10
2024-03-27T01:48:08.808Z,87.13
2024-03-27T01:53:14.747Z,87.37
2024-03-27T01:58:18.178Z,87.50
2024-03-27T02:03:21.083Z,87.50
2024-03-27T02:08:24.090Z,87.53
2024-03-27T02:13:27.000Z,87.37
2024-03-27T02:18:29.911Z,88.02
2024-03-27T02:23:40.787Z,87.49
2024-03-27T02:28:46.869Z,87.90
2024-03-27T02:33:49.771Z,88.46
2024-03-27T02:38:52.778Z,88.64
2024-03-27T02:43:55.985Z,89.24
2024-03-27T02:48:58.997Z,89.41
2024-03-27T02:54:01.902Z,89.46
2024-03-27T02:59:05.315Z,89.22
2024-03-27T03:04:08.226Z,89.44
2024-03-27T03:09:11.025Z,90.44
2024-03-27T03:14:13.830Z,90.77
2024-03-27T03:19:17.140Z,91.36
2024-03-27T03:24:19.941Z,91.75
2024-03-27T03:29:22.845Z,91.31
2024-03-27T03:34:25.851Z,92.12
2024-03-27T03:39:28.761Z,92.17
2024-03-27T03:44:31.664Z,92.44
2024-03-27T03:49:34.661Z,92.80
2024-03-27T03:54:37.678Z,92.82
2024-03-27T03:59:40.790Z,92.70
2024-03-27T04:04:43.687Z,92.68
2024-03-27T04:09:46.692Z,92.20
2024-03-27T04:14:53.090Z,92.39
2024-03-27T04:20:00.348Z,91.84
2024-03-27T04:25:04.812Z,91.37
2024-03-27T04:30:08.838Z,91.53
2024-03-27T04:35:11.770Z,91.07
2024-03-27T04:40:14.669Z,90.61
2024-03-27T04:45:17.579Z,90.31
2024-03-27T04:50:20.483Z,89.67
2024-03-27T04:55:23.479Z,89.04
2024-03-27T05:00:26.691Z,88.19
2024-03-27T05:05:29.491Z,87.75
2024-03-27T05:10:32.501Z,87.54
2024-03-27T05:15:35.310Z,86.47
2024-03-27T05:20:38.175Z,85.17
2024-03-27T05:25:41.113Z,84.12
2024-03-27T05:30:44.013Z,83.28
2024-03-27T05:35:46.916Z,82.87
2024-03-27T05:40:49.824Z,82.44
2024-03-27T05:45:53.685Z,82.09
2024-03-27T05:50:57.677Z,81.31
2024-03-27T05:56:00.895Z,80.55
2024-03-27T06:01:04.206Z,79.35
2024-03-27T06:06:07.418Z,77.86
2024-03-27T06:11:10.528Z,76.24
2024-03-27T06:16:13.742Z,75.52
2024-03-27T06:21:18.476Z,74.09
2024-03-27T06:26:22.826Z,69.71
2024-03-27T06:31:27.063Z,66.93
2024-03-27T06:36:30.072Z,63.14
2024-03-27T06:41:35.938Z,60.74
2024-03-27T06:46:39.163Z,58.41
2024-03-27T06:51:42.180Z,56.93
2024-03-27T06:56:45.786Z,55.28
2024-03-27T07:01:49.117Z,53.57
2024-03-27T07:06:52.097Z,52.54
2024-03-27T07:11:55.313Z,52.42
2024-03-27T07:16:58.209Z,55.00
2024-03-27T07:22:01.480Z,57.45
2024-03-27T07:27:04.639Z,59.98
2024-03-27T07:32:08.463Z,61.37
2024-03-27T07:37:11.470Z,62.09
2024-03-27T07:42:14.328Z,63.24
2024-03-27T07:47:17.281Z,63.10
2024-03-27T07:52:20.180Z,63.24
2024-03-27T07:57:23.497Z,63.15
2024-03-27T08:02:26.601Z,63.05
2024-03-27T08:07:29.576Z,62.11
2024-03-27T08:12:32.646Z,61.93
2024-03-27T08:17:35.724Z,61.57
2024-03-27T08:22:40.847Z,61.66
2024-03-27T08:27:43.750Z,61.80
2024-03-27T08:32:46.688Z,60.97
2024-03-27T08:37:54.890Z,60.34
2024-03-27T08:43:03.717Z,60.49
2024-03-27T08:48:06.856Z,59.99
2024-03-27T08:53:09.682Z,59.65
2024-03-27T08:58:12.631Z,58.46
2024-03-27T09:03:15.589Z,56.81
2024-03-27T09:08:18.590Z,56.54
2024-03-27T09:13:21.699Z,55.78
2024-03-27T09:18:24.601Z,55.73
2024-03-27T09:23:30.909Z,55.11
2024-03-27T09:28:33.790Z,54.61
2024-03-27T09:33:36.825Z,54.31
2024-03-27T09:38:39.807Z,54.27
2024-03-27T09:43:45.448Z,54.27
2024-03-27T09:48:51.147Z,53.99
2024-03-27T09:53:54.049Z,53.80
2024-03-27T09:58:58.701Z,53.03
2024-03-27T10:04:01.812Z,52.81
2024-03-27T10:09:08.034Z,51.84
2024-03-27T10:14:13.656Z,51.48
2024-03-27T10:19:16.564Z,50.82
2024-03-27T10:24:19.891Z,50.19
2024-03-27T10:29:22.780Z,50.77
2024-03-27T10:34:25.632Z,50.24
2024-03-27T10:39:33.196Z,49.85
2024-03-27T10:44:37.238Z,49.34
2024-03-27T10:49:42.157Z,48.85
2024-03-27T10:54:46.669Z,49.43
2024-03-27T10:59:55.778Z,49.77
2024-03-27T11:05:02.894Z,49.60
2024-03-27T11:10:06.467Z,49.34
2024-03-27T11:15:11.453Z,48.86
2024-03-27T11:20:15.596Z,47.13
2024-03-27T11:25:23.458Z,47.08
2024-03-27T11:30:28.546Z,47.71
2024-03-27T11:35:32.377Z,46.76
2024-03-27T11:40:35.735Z,46.62
2024-03-27T11:45:39.058Z,47.02
2024-03-27T11:50:43.032Z,45.70
2024-03-27T11:55:54.095Z,45.98
2024-03-27T12:01:00.426Z,45.61
2024-03-27T12:06:05.455Z,45.61
2024-03-27T12:11:11.716Z,45.12
2024-03-27T12:16:15.121Z,45.45
2024-03-27T12:21:17.992Z,44.67
2024-03-27T12:26:23.852Z,43.74
2024-03-27T12:31:29.334Z,44.26
2024-03-27T12:36:34.366Z,44.01
2024-03-27T12:41:37.370Z,44.70
2024-03-27T12:46:40.277Z,43.94
2024-03-27T12:51:43.195Z,44.54
2024-03-27T12:56:46.264Z,44.72
2024-03-27T13:01:49.409Z,44.61
2024-03-27T13:06:52.341Z,44.07
2024-03-27T13:11:55.422Z,44.25
2024-03-27T13:16:58.624Z,43.42
2024-03-27T13:22:02.150Z,43.28
2024-03-27T13:27:05.970Z,44.04
2024-03-27T13:32:11.966Z,44.21
2024-03-27T13:37:15.928Z,44.43
2024-03-27T13:42:19.091Z,43.11
2024-03-27T13:47:22.105Z,43.38
2024-03-27T13:52:25.202Z,43.42
2024-03-27T13:57:28.318Z,43.33
2024-03-27T14:02:31.378Z,43.93
2024-03-27T14:07:35.139Z,43.61
2024-03-27T14:12:38.357Z,43.75
2024-03-27T14:17:41.681Z,44.27
2024-03-27T14:22:46.985Z,44.67
2024-03-27T14:27:51.715Z,44.75
2024-03-27T14:32:54.783Z,44.87
2024-03-27T14:37:57.791Z,44.93
2024-03-27T14:43:00.895Z,44.98
2024-03-27T14:48:04.645Z,45.29
2024-03-27T14:53:08.021Z,45.43
2024-03-27T14:58:10.944Z,45.89
2024-03-27T15:03:14.986Z,45.96
2024-03-27T15:08:21.153Z,46.23
2024-03-27T15:13:24.362Z,46.28
2024-03-27T15:18:27.680Z,46.61
2024-03-27T15:23:30.892Z,47.12
2024-03-27T15:28:34.224Z,47.60
2024-03-27T15:33:37.518Z,48.23
2024-03-27T15:38:40.330Z,48.55
2024-03-27T15:43:43.527Z,48.97
2024-03-27T15:48:46.637Z,49.30
2024-03-27T15:53:49.645Z,49.65
2024-03-27T15:58:52.960Z,49.77
2024-03-27T16:03:58.648Z,49.64
2024-03-27T16:09:05.012Z,49.39
2024-03-27T16:14:07.923Z,49.91
2024-03-27T16:19:10.824Z,50.47
2024-03-27T16:24:14.043Z,50.54
2024-03-27T16:29:16.936Z,51.23
2024-03-27T16:34:19.849Z,51.42
2024-03-27T16:39:25.848Z,51.67
2024-03-27T16:44:35.658Z,51.91
2024-03-27T16:49:38.927Z,52.18
2024-03-27T16:54:45.591Z,52.24
2024-03-27T16:59:48.596Z,52.76
2024-03-27T17:04:51.516Z,53.15
2024-03-27T17:09:55.569Z,53.45
2024-03-27T17:14:58.847Z,53.46
2024-03-27T17:20:01.980Z,53.67
2024-03-27T17:25:05.533Z,53.98
2024-03-27T17:30:09.027Z,54.11
2024-03-27T17:35:12.007Z,54.50
2024-03-27T17:40:15.421Z,54.60
2024-03-27T17:45:18.321Z,54.98
2024-03-27T17:50:21.242Z,55.48
2024-03-27T17:55:24.643Z,55.73
2024-03-27T18:00:28.502Z,56.00
2024-03-27T18:05:31.370Z,56.39
2024-03-27T18:10:34.493Z,56.54
2024-03-27T18:15:38.572Z,57.05
2024-03-27T18:20:42.869Z,57.65
2024-03-27T18:25:45.857Z,58.01
2024-03-27T18:30:58.062Z,58.22
2024-03-27T18:36:01.422Z,58.37
2024-03-27T18:41:04.519Z,58.67
2024-03-27T18:46:07.616Z,58.98
2024-03-27T18:51:10.534Z,59.25
2024-03-27T18:56:13.547Z,59.47
2024-03-27T19:01:16.542Z,59.76
2024-03-27T19:06:19.746Z,60.08
2024-03-27T19:11:27.986Z,60.24
2024-03-27T19:16:38.621Z,60.44
2024-03-27T19:21:41.479Z,60.54
2024-03-27T19:26:44.774Z,61.22
2024-03-27T19:31:47.882Z,60.35
2024-03-27T19:36:51.844Z,61.56
2024-03-27T19:41:55.029Z,61.97
2024-03-27T19:46:59.488Z,62.40
2024-03-27T19:52:14.442Z,62.77
2024-03-27T19:57:21.760Z,62.26
2024-03-27T20:02:24.981Z,63.35
2024-03-27T20:07:31.208Z,63.50
2024-03-27T20:12:35.284Z,63.70
2024-03-27T20:17:38.307Z,63.87
2024-03-27T20:22:41.404Z,64.03
2024-03-27T20:27:44.303Z,64.10
2024-03-27T20:32:47.204Z,64.00
2024-03-27T20:37:50.085Z,63.94
2024-03-27T20:42:53.017Z,63.90
2024-03-27T20:47:55.922Z,64.05
2024-03-27T20:52:59.075Z,63.97
2024-03-27T20:58:02.138Z,64.02
2024-03-27T21:03:06.052Z,64.31
2024-03-27T21:08:09.284Z,64.63
2024-03-27T21:13:12.177Z,64.91
2024-03-27T21:18:15.188Z,65.00
2024-03-27T21:23:18.208Z,65.19
2024-03-27T21:28:21.342Z,65.31
2024-03-27T21:33:24.630Z,65.28
2024-03-27T21:38:27.929Z,65.24
2024-03-27T21:43:31.472Z,66.00
2024-03-27T21:48:34.998Z,65.96
2024-03-27T21:53:37.871Z,66.11
2024-03-27T21:58:40.625Z,66.38
2024-03-27T22:03:43.578Z,66.31
2024-03-27T22:08:46.480Z,66.42
2024-03-27T22:13:50.114Z,66.71
2024-03-27T22:18:53.148Z,66.42
2024-03-27T22:23:56.527Z,66.02
2024-03-27T22:28:59.537Z,65.57
2024-03-27T22:34:02.473Z,64.98
2024-03-27T22:39:05.343Z,64.71
2024-03-27T22:44:08.250Z,64.44
2024-03-27T22:49:11.180Z,64.52
2024-03-27T22:54:15.493Z,64.74
2024-03-27T22:59:18.408Z,65.07
2024-03-27T23:04:21.647Z,65.14
2024-03-27T23:09:24.518Z,65.43
2024-03-27T23:14:27.411Z,65.44
2024-03-27T23:19:30.317Z,65.50
2024-03-27T23:24:33.321Z,65.97
2024-03-27T23:29:36.128Z,66.02
2024-03-27T23:34:39.028Z,66.34
2024-03-27T23:39:41.830Z,66.46
2024-03-27T23:44:44.732Z,66.80
2024-03-27T23:49:47.640Z,66.99
2024-03-27T23:54:50.540Z,66.93
2024-03-27T23:59:54.679Z,67.09
